Time,TemperatureF,DewpointF,PressureIn,WindDirection,WindDirectionDegrees,WindSpeedMPH,WindSpeedGustMPH,Humidity,HourlyPrecipIn,Conditions,Clouds,dailyrainin,SoftwareType,DateUTC
2013-04-15 00:00:00,37.8,29.9,30.12,ESE,123,3.0,5.0,73,0.00,BKN,BKN,0.00,WeatherDisplay:10.37,2013-04-15 04:00:00,
2013-04-15 00:02:00,37.8,29.9,30.12,ESE,112,3.4,3.5,73,0.00,SCT,,0.00,WeatherDisplay:10.37,2013-04-15 04:02:00,
2013-04-15 00:07:00,37.6,29.7,30.12,East,90,3.1,3.7,73,0.00,SCT,,0.00,WeatherDisplay:10.37,2013-04-15 04:07:00,
2013-04-15 00:12:00,37.6,29.7,30.12,ESE,112,3.2,3.5,73,0.00,SCT,,0.00,WeatherDisplay:10.37,2013-04-15 04:12:00,
2013-04-15 00:17:00,37.6,29.7,30.12,SE,135,4.7,5.3,73,0.00,SCT,,0.00,WeatherDisplay:10.37,2013-04-15 04:17:00,
2013-04-15 00:22:00,37.6,29.7,30.12,ESE,112,4.2,4.6,73,0.00,SCT,,0.00,WeatherDisplay:10.37,2013-04-15 04:22:00,
2013-04-15 00:27:00,37.6,29.7,30.12,ESE,112,4.3,5.8,73,0.00,SCT,,0.00,WeatherDisplay:10.37,2013-04-15 04:27:00,
2013-04-15 00:32:00,37.4,29.5,30.12,ESE,112,4.1,5.8,73,0.00,SCT,,0.00,WeatherDisplay:10.37,2013-04-15 04:32:00,
2013-04-15 00:37:00,37.2,29.3,30.12,ESE,112,5.4,5.8,73,0.00,SCT,,0.00,WeatherDisplay:10.37,2013-04-15 04:37:00,
2013-04-15 00:42:00,37.2,29.3,30.11,East,90,4.8,6.9,73,0.00,SCT,,0.00,WeatherDisplay:10.37,2013-04-15 04:42:00,
2013-04-15 00:47:00,37.2,29.3,30.11,ESE,112,6.5,6.9,73,0.00,SCT,,0.00,WeatherDisplay:10.37,2013-04-15 04:47:00,
2013-04-15 00:52:00,37.2,29.3,30.11,ESE,112,5.4,5.8,73,0.00,SCT,,0.00,WeatherDisplay:10.37,2013-04-15 04:52:00,
2013-04-15 00:57:00,37.2,29.3,30.11,East,90,4.5,4.7,73,0.00,SCT,,0.00,WeatherDisplay:10.37,2013-04-15 04:57:00,
2013-04-15 01:02:00,37.0,29.1,30.11,East,90,4.7,5.8,73,0.00,BKN,,0.00,WeatherDisplay:10.37,2013-04-15 05:02:00,
2013-04-15 01:07:00,37.0,29.1,30.11,ESE,112,5.0,6.9,73,0.00,BKN,,0.00,WeatherDisplay:10.37,2013-04-15 05:07:00,
2013-04-15 01:12:00,37.0,29.1,30.11,ESE,112,5.5,6.9,73,0.00,BKN,,0.00,WeatherDisplay:10.37,2013-04-15 05:12:00,
2013-04-15 01:17:00,37.0,29.1,30.10,ESE,112,4.6,5.8,73,0.00,BKN,,0.00,WeatherDisplay:10.37,2013-04-15 05:17:00,
2013-04-15 01:22:00,37.0,29.1,30.10,East,90,5.0,6.3,73,0.00,BKN,,0.00,WeatherDisplay:10.37,2013-04-15 05:22:00,
2013-04-15 01:27:00,37.0,29.5,30.10,ESE,112,5.0,5.8,74,0.00,BKN,,0.00,WeatherDisplay:10.37,2013-04-15 05:27:00,
2013-04-15 01:32:00,36.9,29.4,30.10,ESE,112,4.4,4.6,74,0.00,BKN,,0.00,WeatherDisplay:10.37,2013-04-15 05:32:00,
2013-04-15 01:37:00,36.9,29.4,30.10,East,90,4.2,5.8,74,0.00,BKN,,0.00,WeatherDisplay:10.37,2013-04-15 05:37:00,
2013-04-15 01:42:00,36.9,29.7,30.10,ESE,112,5.1,5.8,75,0.00,BKN,,0.00,WeatherDisplay:10.37,2013-04-15 05:42:00,
2013-04-15 01:47:00,36.9,29.7,30.10,ESE,112,5.6,5.8,75,0.00,BKN,,0.00,WeatherDisplay:10.37,2013-04-15 05:47:00,
2013-04-15 01:52:00,36.9,29.7,30.09,SE,135,5.4,5.8,75,0.00,BKN,,0.00,WeatherDisplay:10.37,2013-04-15 05:52:00,
2013-04-15 01:57:00,36.7,29.5,30.09,ESE,112,4.2,5.8,75,0.00,BKN,,0.00,WeatherDisplay:10.37,2013-04-15 05:57:00,
2013-04-15 02:02:00,36.7,29.5,30.09,ESE,112,4.0,5.8,75,0.00,BKN,,0.00,WeatherDisplay:10.37,2013-04-15 06:02:00,
2013-04-15 02:07:00,36.7,29.5,30.10,ENE,68,4.7,4.7,75,0.00,BKN,,0.00,WeatherDisplay:10.37,2013-04-15 06:07:00,
2013-04-15 02:12:00,36.7,29.5,30.10,ENE,68,4.7,4.7,75,0.00,BKN,,0.00,WeatherDisplay:10.37,2013-04-15 06:12:00,
2013-04-15 02:17:00,36.7,29.8,30.10,East,90,4.4,4.6,76,0.00,BKN,,0.00,WeatherDisplay:10.37,2013-04-15 06:17:00,
2013-04-15 02:22:00,36.7,29.8,30.10,ESE,112,4.4,5.8,76,0.00,BKN,,0.00,WeatherDisplay:10.37,2013-04-15 06:22:00,
2013-04-15 02:27:00,36.7,29.8,30.10,ENE,68,5.0,5.8,76,0.00,BKN,,0.00,WeatherDisplay:10.37,2013-04-15 06:27:00,
2013-04-15 02:33:00,36.7,29.8,30.09,ESE,112,4.7,5.8,76,0.00,BKN,,0.00,WeatherDisplay:10.37,2013-04-15 06:33:00,
2013-04-15 02:38:00,36.7,30.2,30.09,ESE,112,3.7,4.6,77,0.00,BKN,,0.00,WeatherDisplay:10.37,2013-04-15 06:38:00,
2013-04-15 02:43:00,36.9,30.4,30.08,NE,45,4.7,5.8,77,0.00,BKN,,0.00,WeatherDisplay:10.37,2013-04-15 06:43:00,
2013-04-15 02:48:00,36.9,30.4,30.08,ESE,112,4.8,5.8,77,0.00,BKN,,0.00,WeatherDisplay:10.37,2013-04-15 06:48:00,
2013-04-15 02:53:00,36.9,30.4,30.08,East,90,6.5,8.1,77,0.00,BKN,,0.00,WeatherDisplay:10.37,2013-04-15 06:53:00,
2013-04-15 02:58:00,37.0,30.5,30.08,ESE,112,5.4,6.9,77,0.00,BKN,,0.00,WeatherDisplay:10.37,2013-04-15 06:58:00,
2013-04-15 03:03:00,37.0,30.5,30.08,ESE,112,6.2,6.3,77,0.00,BKN,,0.00,WeatherDisplay:10.37,2013-04-15 07:03:00,
2013-04-15 03:42:00,37.0,30.5,30.07,ENE,68,4.7,7.3,77,0.00,BKN,,0.00,WeatherDisplay:10.37,2013-04-15 07:42:00,
2013-04-15 03:47:00,37.2,30.7,30.07,ESE,112,5.2,5.8,77,0.00,BKN,,0.00,WeatherDisplay:10.37,2013-04-15 07:47:00,
2013-04-15 03:48:00,37.2,30.7,30.07,SE,135,5.0,5.8,77,0.00,BKN,,0.00,WeatherDisplay:10.37,2013-04-15 07:48:00,
2013-04-15 03:51:00,37.2,30.7,30.07,East,90,4.3,4.7,77,0.00,BKN,,0.00,WeatherDisplay:10.37,2013-04-15 07:51:00,
2013-04-15 03:56:00,37.2,30.7,30.07,ESE,112,4.6,6.9,77,0.00,BKN,,0.00,WeatherDisplay:10.37,2013-04-15 07:56:00,
2013-04-15 04:01:00,37.2,30.7,30.07,SE,135,4.7,6.8,77,0.00,BKN,,0.00,WeatherDisplay:10.37,2013-04-15 08:01:00,
2013-04-15 04:07:00,37.6,31.0,30.07,ESE,112,5.6,8.1,77,0.00,BKN,,0.00,WeatherDisplay:10.37,2013-04-15 08:07:00,
2013-04-15 04:12:00,37.8,31.2,30.07,ESE,112,7.1,8.3,77,0.00,BKN,,0.00,WeatherDisplay:10.37,2013-04-15 08:12:00,
2013-04-15 04:17:00,37.8,31.2,30.08,ENE,68,4.8,5.8,77,0.00,BKN,,0.00,WeatherDisplay:10.37,2013-04-15 08:17:00,
2013-04-15 04:23:00,37.9,31.3,30.08,ESE,112,6.0,6.9,77,0.00,BKN,,0.00,WeatherDisplay:10.37,2013-04-15 08:23:00,
2013-04-15 04:28:00,37.9,31.0,30.08,ESE,112,5.7,6.9,76,0.00,BKN,,0.00,WeatherDisplay:10.37,2013-04-15 08:28:00,
2013-04-15 04:33:00,37.9,31.0,30.08,ESE,112,4.7,4.7,76,0.00,BKN,,0.00,WeatherDisplay:10.37,2013-04-15 08:33:00,
2013-04-15 04:36:00,38.1,31.2,30.08,SE,135,6.7,7.3,76,0.00,BKN,,0.00,WeatherDisplay:10.37,2013-04-15 08:36:00,
2013-04-15 04:40:00,38.1,31.2,30.08,East,100,5.0,7.0,76,0.00,BKN,BKN,0.00,WeatherDisplay:10.37,2013-04-15 08:40:00,
2013-04-15 04:45:00,38.3,31.4,30.08,East,90,4.6,5.8,76,0.00,BKN,,0.00,WeatherDisplay:10.37,2013-04-15 08:45:00,
2013-04-15 04:50:00,38.3,31.4,30.08,East,90,3.1,3.5,76,0.00,BKN,,0.00,WeatherDisplay:10.37,2013-04-15 08:50:00,
2013-04-15 04:55:00,38.3,31.4,30.09,ESE,112,2.9,3.7,76,0.00,BKN,,0.00,WeatherDisplay:10.37,2013-04-15 08:55:00,
2013-04-15 05:00:00,38.5,31.6,30.09,East,90,4.0,4.6,76,0.00,BKN,,0.00,WeatherDisplay:10.37,2013-04-15 09:00:00,
2013-04-15 05:05:00,38.7,31.8,30.09,East,90,4.1,5.8,76,0.00,BKN,,0.00,WeatherDisplay:10.37,2013-04-15 09:05:00,
2013-04-15 05:10:00,38.7,31.8,30.09,ENE,68,3.0,4.6,76,0.00,BKN,,0.00,WeatherDisplay:10.37,2013-04-15 09:10:00,
2013-04-15 05:15:00,38.8,31.9,30.09,East,90,6.5,6.5,76,0.00,BKN,,0.00,WeatherDisplay:10.37,2013-04-15 09:15:00,
2013-04-15 05:20:00,38.8,31.9,30.08,ESE,112,4.9,5.8,76,0.00,BKN,,0.00,WeatherDisplay:10.37,2013-04-15 09:20:00,
2013-04-15 05:25:00,38.8,31.9,30.08,SE,135,5.2,5.8,76,0.00,BKN,,0.00,WeatherDisplay:10.37,2013-04-15 09:25:00,
2013-04-15 05:30:00,38.8,31.9,30.08,ESE,112,2.8,3.7,76,0.00,BKN,,0.00,WeatherDisplay:10.37,2013-04-15 09:30:00,
2013-04-15 05:35:00,38.8,31.9,30.08,ESE,112,2.7,3.7,76,0.00,BKN,,0.00,WeatherDisplay:10.37,2013-04-15 09:35:00,
2013-04-15 05:40:00,38.8,31.9,30.07,ESE,112,4.5,5.8,76,0.00,BKN,,0.00,WeatherDisplay:10.37,2013-04-15 09:40:00,
2013-04-15 05:45:00,38.8,31.9,30.07,ESE,112,4.3,4.7,76,0.00,BKN,,0.00,WeatherDisplay:10.37,2013-04-15 09:45:00,
2013-04-15 05:50:00,38.8,32.2,30.07,ENE,68,3.0,4.6,77,0.00,BKN,,0.00,WeatherDisplay:10.37,2013-04-15 09:50:00,
2013-04-15 05:55:00,38.8,32.2,30.06,ESE,112,2.3,3.5,77,0.00,BKN,,0.00,WeatherDisplay:10.37,2013-04-15 09:55:00,
2013-04-15 06:00:00,38.8,32.2,30.06,ENE,68,2.4,2.7,77,0.00,BKN,,0.00,WeatherDisplay:10.37,2013-04-15 10:00:00,
2013-04-15 06:05:00,38.8,32.2,30.06,ESE,112,3.3,5.8,77,0.00,BKN,,0.00,WeatherDisplay:10.37,2013-04-15 10:05:00,
2013-04-15 06:10:00,38.8,32.2,30.06,East,90,3.9,4.7,77,0.00,BKN,,0.00,WeatherDisplay:10.37,2013-04-15 10:10:00,
2013-04-15 06:15:00,38.8,32.2,30.06,East,90,3.0,4.6,77,0.00,BKN,,0.00,WeatherDisplay:10.37,2013-04-15 10:15:00,
2013-04-15 06:20:00,38.8,32.2,30.06,ESE,112,3.3,4.6,77,0.00,BKN,,0.00,WeatherDisplay:10.37,2013-04-15 10:20:00,
2013-04-15 06:25:00,38.8,32.2,30.06,SE,135,3.2,4.6,77,0.00,BKN,,0.00,WeatherDisplay:10.37,2013-04-15 10:25:00,
2013-04-15 06:30:00,38.8,32.2,30.06,East,90,4.0,4.6,77,0.00,BKN,,0.00,WeatherDisplay:10.37,2013-04-15 10:30:00,
2013-04-15 06:35:00,38.8,32.2,30.06,East,90,3.9,4.6,77,0.00,BKN,,0.00,WeatherDisplay:10.37,2013-04-15 10:35:00,
2013-04-15 06:40:00,39.0,32.4,30.06,ESE,112,2.9,3.5,77,0.00,BKN,,0.00,WeatherDisplay:10.37,2013-04-15 10:40:00,
2013-04-15 06:45:00,39.2,32.6,30.06,ENE,68,2.7,2.7,77,0.00,BKN,,0.00,WeatherDisplay:10.37,2013-04-15 10:45:00,
2013-04-15 06:50:00,39.6,33.0,30.06,ENE,68,3.6,3.6,77,0.00,BKN,,0.00,WeatherDisplay:10.37,2013-04-15 10:50:00,
2013-04-15 06:55:00,39.7,33.1,30.06,SE,135,3.2,3.5,77,0.00,BKN,,0.00,WeatherDisplay:10.37,2013-04-15 10:55:00,
2013-04-15 07:01:00,39.9,33.3,30.06,ESE,112,3.3,3.7,77,0.00,BKN,,0.00,WeatherDisplay:10.37,2013-04-15 11:01:00,
2013-04-15 07:06:00,39.9,33.3,30.06,East,90,2.7,3.5,77,0.00,BKN,,0.00,WeatherDisplay:10.37,2013-04-15 11:06:00,
2013-04-15 07:11:00,39.9,33.3,30.06,East,90,2.0,2.7,77,0.00,BKN,,0.00,WeatherDisplay:10.37,2013-04-15 11:11:00,
2013-04-15 07:17:00,40.1,33.5,30.07,ESE,112,2.3,3.5,77,0.00,BKN,,0.00,WeatherDisplay:10.37,2013-04-15 11:17:00,
2013-04-15 07:22:00,40.3,33.3,30.07,ESE,112,2.4,2.4,76,0.00,BKN,,0.00,WeatherDisplay:10.37,2013-04-15 11:22:00,
2013-04-15 07:27:00,40.5,33.5,30.07,ESE,112,1.9,2.3,76,0.00,BKN,,0.00,WeatherDisplay:10.37,2013-04-15 11:27:00,
2013-04-15 07:32:00,40.6,33.6,30.07,NNE,22,1.9,2.7,76,0.00,BKN,,0.00,WeatherDisplay:10.37,2013-04-15 11:32:00,
2013-04-15 07:37:00,40.8,33.8,30.07,NW,315,0.4,1.1,76,0.00,BKN,,0.00,WeatherDisplay:10.37,2013-04-15 11:37:00,
2013-04-15 07:42:00,41.0,34.0,30.08,ENE,68,1.7,2.3,76,0.00,BKN,,0.00,WeatherDisplay:10.37,2013-04-15 11:42:00,
2013-04-15 07:47:00,41.4,34.1,30.08,ESE,112,1.4,2.3,75,0.00,BKN,,0.00,WeatherDisplay:10.37,2013-04-15 11:47:00,
2013-04-15 07:52:00,42.8,34.7,30.08,East,90,2.3,2.3,73,0.00,BKN,,0.00,WeatherDisplay:10.37,2013-04-15 11:52:00,
2013-04-15 07:57:00,44.2,35.0,30.08,ESE,112,3.0,3.5,70,0.00,BKN,,0.00,WeatherDisplay:10.37,2013-04-15 11:57:00,
2013-04-15 08:02:00,45.5,35.9,30.08,East,90,3.0,3.5,69,0.00,BKN,,0.00,WeatherDisplay:10.37,2013-04-15 12:02:00,
2013-04-15 08:07:00,46.9,36.1,30.08,East,90,3.1,4.6,66,0.00,BKN,,0.00,WeatherDisplay:10.37,2013-04-15 12:07:00,
2013-04-15 08:13:00,48.6,37.0,30.08,ESE,112,3.6,4.6,64,0.00,BKN,,0.00,WeatherDisplay:10.37,2013-04-15 12:13:00,
2013-04-15 08:18:00,49.5,36.2,30.08,NE,45,4.0,4.7,60,0.00,BKN,,0.00,WeatherDisplay:10.37,2013-04-15 12:18:00,
2013-04-15 08:23:00,49.1,36.6,30.08,ESE,112,2.7,3.5,62,0.00,BKN,,0.00,WeatherDisplay:10.37,2013-04-15 12:23:00,
2013-04-15 08:28:00,49.5,37.0,30.08,ENE,68,1.5,3.2,62,0.00,BKN,,0.00,WeatherDisplay:10.37,2013-04-15 12:28:00,
2013-04-15 08:33:00,49.6,37.1,30.08,NE,45,1.9,2.7,62,0.00,BKN,,0.00,WeatherDisplay:10.37,2013-04-15 12:33:00,
2013-04-15 08:38:00,48.6,37.4,30.08,East,90,3.0,3.5,65,0.00,BKN,,0.00,WeatherDisplay:10.37,2013-04-15 12:38:00,
2013-04-15 08:43:00,49.6,37.5,30.08,ESE,112,3.1,4.2,63,0.00,BKN,,0.00,WeatherDisplay:10.37,2013-04-15 12:43:00,
2013-04-15 08:48:00,50.2,38.1,30.08,ESE,112,3.0,3.5,63,0.00,BKN,,0.00,WeatherDisplay:10.37,2013-04-15 12:48:00,
2013-04-15 08:53:00,51.6,39.0,30.08,ESE,112,2.6,3.5,62,0.00,BKN,,0.00,WeatherDisplay:10.37,2013-04-15 12:53:00,
2013-04-15 08:58:00,53.1,38.3,30.08,ESE,112,3.5,4.2,57,0.00,BKN,,0.00,WeatherDisplay:10.37,2013-04-15 12:58:00,
2013-04-15 09:04:00,53.8,38.5,30.08,East,90,3.3,3.7,56,0.00,SCT,,0.00,WeatherDisplay:10.37,2013-04-15 13:04:00,
2013-04-15 09:09:00,55.0,39.1,30.08,ESE,112,1.7,3.2,55,0.00,SCT,,0.00,WeatherDisplay:10.37,2013-04-15 13:09:00,
2013-04-15 09:14:00,54.7,38.8,30.08,ESE,112,2.6,3.7,55,0.00,SCT,,0.00,WeatherDisplay:10.37,2013-04-15 13:14:00,
2013-04-15 09:19:00,56.3,39.4,30.08,SE,135,2.3,3.5,53,0.00,SCT,,0.00,WeatherDisplay:10.37,2013-04-15 13:19:00,
2013-04-15 09:24:00,55.4,38.1,30.08,East,90,2.2,2.7,52,0.00,SCT,,0.00,WeatherDisplay:10.37,2013-04-15 13:24:00,
2013-04-15 09:29:00,56.1,38.7,30.07,ESE,112,1.5,2.3,52,0.00,SCT,,0.00,WeatherDisplay:10.37,2013-04-15 13:29:00,
2013-04-15 09:34:00,58.1,40.1,30.07,South,180,0.0,0.0,51,0.00,SCT,,0.00,WeatherDisplay:10.37,2013-04-15 13:34:00,
2013-04-15 09:39:00,58.6,39.0,30.07,SSW,202,0.2,2.3,48,0.00,SCT,,0.00,WeatherDisplay:10.37,2013-04-15 13:39:00,
2013-04-15 09:44:00,56.8,38.9,30.08,SW,225,0.3,1.1,51,0.00,SCT,,0.00,WeatherDisplay:10.37,2013-04-15 13:44:00,
2013-04-15 09:49:00,57.9,39.9,30.08,North,360,0.0,0.0,51,0.00,SCT,,0.00,WeatherDisplay:10.37,2013-04-15 13:49:00,
2013-04-15 09:54:00,57.9,39.4,30.07,ENE,68,0.0,1.1,50,0.00,SCT,,0.00,WeatherDisplay:10.37,2013-04-15 13:54:00,
2013-04-15 09:59:00,59.0,42.4,30.07,ESE,112,1.1,1.1,54,0.00,SCT,,0.00,WeatherDisplay:10.37,2013-04-15 13:59:00,
2013-04-15 10:04:00,60.1,42.4,30.07,ESE,112,0.3,1.1,52,0.00,SCT,,0.00,WeatherDisplay:10.37,2013-04-15 14:04:00,
2013-04-15 10:10:00,61.2,40.3,30.07,South,180,1.0,2.0,46,0.00,SCT,SCT,0.00,WeatherDisplay:10.37,2013-04-15 14:10:00,
2013-04-15 10:15:00,62.0,41.5,30.07,SSW,203,2.0,3.0,47,0.00,SCT,SCT,0.00,WeatherDisplay:10.37,2013-04-15 14:15:00,
2013-04-15 10:20:00,62.2,41.7,30.06,SW,220,3.0,4.0,47,0.00,SCT,SCT,0.00,WeatherDisplay:10.37,2013-04-15 14:20:00,
2013-04-15 10:25:00,63.0,41.3,30.06,South,180,2.6,3.5,45,0.00,SCT,,0.00,WeatherDisplay:10.37,2013-04-15 14:25:00,
2013-04-15 10:30:00,64.4,43.2,30.06,West,270,3.2,4.6,46,0.00,SCT,,0.00,WeatherDisplay:10.37,2013-04-15 14:30:00,
2013-04-15 10:35:00,64.4,42.6,30.06,North,360,3.8,4.6,45,0.00,SCT,,0.00,WeatherDisplay:10.37,2013-04-15 14:35:00,
2013-04-15 10:40:00,65.8,42.7,30.06,WNW,292,4.6,6.9,43,0.00,SCT,,0.00,WeatherDisplay:10.37,2013-04-15 14:40:00,
2013-04-15 10:45:00,66.7,44.7,30.06,SSW,202,2.6,4.6,45,0.00,SCT,,0.00,WeatherDisplay:10.37,2013-04-15 14:45:00,
2013-04-15 10:51:00,67.5,43.0,30.06,SW,225,7.1,11.5,41,0.00,SCT,,0.00,WeatherDisplay:10.37,2013-04-15 14:51:00,
2013-04-15 10:57:00,67.6,43.1,30.06,NW,315,11.1,13.8,41,0.00,SCT,,0.00,WeatherDisplay:10.37,2013-04-15 14:57:00,
2013-04-15 11:02:00,67.6,43.1,30.06,WSW,248,9.4,9.4,41,0.00,SCT,,0.00,WeatherDisplay:10.37,2013-04-15 15:02:00,
2013-04-15 11:07:00,68.7,44.0,30.05,East,90,4.0,4.6,41,0.00,SCT,,0.00,WeatherDisplay:10.37,2013-04-15 15:07:00,
2013-04-15 11:12:00,68.5,43.2,30.05,East,90,6.1,11.5,40,0.00,SCT,,0.00,WeatherDisplay:10.37,2013-04-15 15:12:00,
2013-04-15 11:17:00,68.9,43.6,30.05,WNW,292,8.1,9.2,40,0.00,SCT,,0.00,WeatherDisplay:10.37,2013-04-15 15:17:00,
2013-04-15 11:22:00,68.7,43.4,30.05,SE,135,7.7,10.4,40,0.00,SCT,,0.00,WeatherDisplay:10.37,2013-04-15 15:22:00,
2013-04-15 11:27:00,68.9,43.6,30.05,West,270,6.5,8.1,40,0.00,SCT,,0.00,WeatherDisplay:10.37,2013-04-15 15:27:00,
2013-04-15 11:33:00,69.4,44.0,30.04,SSW,202,8.5,9.9,40,0.00,SCT,,0.00,WeatherDisplay:10.37,2013-04-15 15:33:00,
2013-04-15 11:38:00,69.3,43.3,30.04,WSW,248,6.2,9.2,39,0.00,SCT,,0.00,WeatherDisplay:10.37,2013-04-15 15:38:00,
2013-04-15 11:43:00,69.6,44.2,30.04,WSW,248,7.3,7.3,40,0.00,SCT,,0.00,WeatherDisplay:10.37,2013-04-15 15:43:00,
2013-04-15 11:48:00,69.8,44.4,30.04,South,180,4.8,9.2,40,0.00,SCT,,0.00,WeatherDisplay:10.37,2013-04-15 15:48:00,
2013-04-15 11:53:00,70.2,44.7,30.04,ESE,112,9.6,11.5,40,0.00,SCT,,0.00,WeatherDisplay:10.37,2013-04-15 15:53:00,
2013-04-15 11:58:00,70.5,44.3,30.04,SW,225,7.4,8.3,39,0.00,SCT,,0.00,WeatherDisplay:10.37,2013-04-15 15:58:00,
2013-04-15 12:03:00,70.5,44.3,30.04,West,270,5.9,6.9,39,0.00,SCT,,0.00,WeatherDisplay:10.37,2013-04-15 16:03:00,
2013-04-15 12:08:00,71.1,44.9,30.04,West,270,7.3,7.3,39,0.00,SCT,,0.00,WeatherDisplay:10.37,2013-04-15 16:08:00,
2013-04-15 12:13:00,71.4,45.8,30.04,NW,315,5.0,6.3,40,0.00,SCT,,0.00,WeatherDisplay:10.37,2013-04-15 16:13:00,
2013-04-15 12:18:00,71.1,44.9,30.04,East,90,6.2,11.5,39,0.00,SCT,,0.00,WeatherDisplay:10.37,2013-04-15 16:18:00,
2013-04-15 12:23:00,70.5,44.3,30.04,West,270,6.2,8.1,39,0.00,SCT,,0.00,WeatherDisplay:10.37,2013-04-15 16:23:00,
2013-04-15 12:28:00,71.2,45.0,30.04,WSW,248,7.5,9.2,39,0.00,SCT,,0.00,WeatherDisplay:10.37,2013-04-15 16:28:00,
2013-04-15 12:33:00,71.2,44.3,30.03,SW,225,6.2,11.5,38,0.00,SCT,,0.00,WeatherDisplay:10.37,2013-04-15 16:33:00,
2013-04-15 12:38:00,71.6,44.6,30.03,WNW,292,6.8,9.2,38,0.00,SCT,,0.00,WeatherDisplay:10.37,2013-04-15 16:38:00,
2013-04-15 12:43:00,72.1,45.1,30.03,WNW,292,4.9,8.1,38,0.00,SCT,,0.00,WeatherDisplay:10.37,2013-04-15 16:43:00,
2013-04-15 12:48:00,72.5,45.4,30.03,SW,225,10.2,12.4,38,0.00,SCT,,0.00,WeatherDisplay:10.37,2013-04-15 16:48:00,
2013-04-15 12:53:00,72.0,45.0,30.03,West,270,8.6,9.9,38,0.00,SCT,,0.00,WeatherDisplay:10.37,2013-04-15 16:53:00,
2013-04-15 12:58:00,71.8,44.8,30.03,West,270,6.0,10.4,38,0.00,SCT,,0.00,WeatherDisplay:10.37,2013-04-15 16:58:00,
2013-04-15 13:03:00,72.3,45.3,30.03,SW,225,7.3,10.4,38,0.00,BKN,,0.00,WeatherDisplay:10.37,2013-04-15 17:03:00,
2013-04-15 13:08:00,72.1,45.8,30.03,WSW,248,6.9,10.4,39,0.00,BKN,,0.00,WeatherDisplay:10.37,2013-04-15 17:08:00,
2013-04-15 13:13:00,71.6,44.6,30.03,WSW,248,8.0,9.4,38,0.00,BKN,,0.00,WeatherDisplay:10.37,2013-04-15 17:13:00,
2013-04-15 13:18:00,72.1,45.1,30.02,SW,225,8.0,9.2,38,0.00,BKN,,0.00,WeatherDisplay:10.37,2013-04-15 17:18:00,
2013-04-15 13:21:00,72.1,45.1,30.02,WNW,292,6.8,8.1,38,0.00,BKN,,0.00,WeatherDisplay:10.37,2013-04-15 17:21:00,
2013-04-15 13:26:00,72.0,45.0,30.02,West,270,6.2,8.1,38,0.00,BKN,,0.00,WeatherDisplay:10.37,2013-04-15 17:26:00,
2013-04-15 13:28:00,72.1,45.8,30.03,SW,225,8.5,9.4,39,0.00,BKN,,0.00,WeatherDisplay:10.37,2013-04-15 17:28:00,
2013-04-15 13:33:00,71.2,45.6,30.03,West,270,7.0,11.9,40,0.00,BKN,,0.00,WeatherDisplay:10.37,2013-04-15 17:33:00,
2013-04-15 13:38:00,70.5,45.7,30.03,West,270,7.1,8.3,41,0.00,BKN,,0.00,WeatherDisplay:10.37,2013-04-15 17:38:00,
2013-04-15 13:43:00,70.0,45.2,30.05,West,270,7.0,8.3,41,0.00,BKN,,0.00,WeatherDisplay:10.37,2013-04-15 17:43:00,
2013-04-15 13:48:00,70.2,45.4,30.05,SW,225,11.4,11.5,41,0.00,BKN,,0.00,WeatherDisplay:10.37,2013-04-15 17:48:00,
2013-04-15 13:53:00,70.0,45.2,30.04,SW,225,6.1,6.9,41,0.00,BKN,,0.00,WeatherDisplay:10.37,2013-04-15 17:53:00,
2013-04-15 13:58:00,69.1,45.0,30.04,WNW,292,6.6,6.9,42,0.00,BKN,,0.00,WeatherDisplay:10.37,2013-04-15 17:58:00,
2013-04-15 14:03:00,70.0,44.6,30.04,SSW,202,5.1,7.3,40,0.00,BKN,,0.00,WeatherDisplay:10.37,2013-04-15 18:03:00,
2013-04-15 14:08:00,70.0,44.6,30.04,West,270,6.8,9.2,40,0.00,BKN,,0.00,WeatherDisplay:10.37,2013-04-15 18:08:00,
2013-04-15 14:13:00,69.8,45.7,30.04,West,270,6.2,8.1,42,0.00,BKN,,0.00,WeatherDisplay:10.37,2013-04-15 18:13:00,
2013-04-15 14:18:00,69.6,44.8,30.04,WSW,248,7.1,8.1,41,0.00,BKN,,0.00,WeatherDisplay:10.37,2013-04-15 18:18:00,
2013-04-15 14:23:00,70.7,45.2,30.04,West,270,7.1,10.4,40,0.00,BKN,,0.00,WeatherDisplay:10.37,2013-04-15 18:23:00,
2013-04-15 14:29:00,71.4,45.1,30.03,South,180,7.1,11.5,39,0.00,BKN,,0.00,WeatherDisplay:10.37,2013-04-15 18:29:00,
2013-04-15 14:30:00,71.1,45.5,30.03,SW,225,5.8,8.1,40,0.00,BKN,,0.00,WeatherDisplay:10.37,2013-04-15 18:30:00,
2013-04-15 14:35:00,71.2,45.6,30.03,South,180,7.7,8.3,40,0.00,BKN,,0.00,WeatherDisplay:10.37,2013-04-15 18:35:00,
2013-04-15 14:40:00,70.9,45.4,30.03,SW,225,7.8,9.2,40,0.00,BKN,,0.00,WeatherDisplay:10.37,2013-04-15 18:40:00,
2013-04-15 14:45:00,71.1,44.9,30.03,West,270,5.0,5.8,39,0.00,BKN,,0.00,WeatherDisplay:10.37,2013-04-15 18:45:00,
2013-04-15 14:50:00,71.6,45.3,30.03,West,270,6.1,6.9,39,0.00,BKN,,0.00,WeatherDisplay:10.37,2013-04-15 18:50:00,
2013-04-15 14:55:00,71.4,44.5,30.03,WSW,248,6.3,8.1,38,0.00,BKN,,0.00,WeatherDisplay:10.37,2013-04-15 18:55:00,
2013-04-15 15:00:00,71.4,45.1,30.03,West,270,5.6,5.8,39,0.00,BKN,,0.00,WeatherDisplay:10.37,2013-04-15 19:00:00,
2013-04-15 15:05:00,71.4,45.8,30.02,SW,225,4.8,6.3,40,0.00,BKN,,0.00,WeatherDisplay:10.37,2013-04-15 19:05:00,
2013-04-15 15:10:00,72.5,45.4,30.02,SW,225,3.8,5.3,38,0.00,BKN,,0.00,WeatherDisplay:10.37,2013-04-15 19:10:00,
2013-04-15 15:15:00,71.6,46.0,30.02,WNW,292,5.0,5.8,40,0.00,BKN,,0.00,WeatherDisplay:10.37,2013-04-15 19:15:00,
2013-04-15 15:20:00,70.5,44.3,30.02,North,360,2.7,4.2,39,0.00,BKN,,0.00,WeatherDisplay:10.37,2013-04-15 19:20:00,
2013-04-15 15:25:00,70.7,44.5,30.02,West,270,3.1,4.6,39,0.00,BKN,,0.00,WeatherDisplay:10.37,2013-04-15 19:25:00,
2013-04-15 15:31:00,70.5,44.3,30.01,West,270,1.8,3.5,39,0.00,BKN,,0.00,WeatherDisplay:10.37,2013-04-15 19:31:00,
2013-04-15 15:36:00,70.7,45.2,30.01,SW,225,0.8,2.7,40,0.00,BKN,,0.00,WeatherDisplay:10.37,2013-04-15 19:36:00,
2013-04-15 15:41:00,70.7,44.5,30.01,West,270,1.5,2.3,39,0.00,BKN,,0.00,WeatherDisplay:10.37,2013-04-15 19:41:00,
2013-04-15 15:47:00,70.2,44.7,30.01,North,360,3.1,3.5,40,0.00,BKN,,0.00,WeatherDisplay:10.37,2013-04-15 19:47:00,
2013-04-15 15:52:00,71.1,45.5,30.00,SSW,202,2.1,2.7,40,0.00,BKN,,0.00,WeatherDisplay:10.37,2013-04-15 19:52:00,
2013-04-15 15:57:00,71.2,46.3,30.00,SE,135,0.0,0.0,41,0.00,BKN,,0.00,WeatherDisplay:10.37,2013-04-15 19:57:00,
2013-04-15 16:00:00,72.1,45.1,30.00,South,181,2.0,4.0,38,0.00,BKN,BKN,0.00,WeatherDisplay:10.37,2013-04-15 20:00:00,
2013-04-15 16:01:00,71.6,44.6,30.00,SSW,202,1.3,2.3,38,0.00,BKN,,0.00,WeatherDisplay:10.37,2013-04-15 20:01:00,
2013-04-15 16:02:00,71.4,45.1,30.00,South,180,1.1,2.7,39,0.00,BKN,,0.00,WeatherDisplay:10.37,2013-04-15 20:02:00,
2013-04-15 16:03:00,71.4,45.1,30.00,SSE,158,2.2,2.3,39,0.00,BKN,,0.00,WeatherDisplay:10.37,2013-04-15 20:03:00,
2013-04-15 16:05:00,71.4,45.1,30.00,SSE,158,3.0,3.5,39,0.00,BKN,,0.00,WeatherDisplay:10.37,2013-04-15 20:05:00,
2013-04-15 16:10:00,70.9,45.4,30.00,SE,135,2.8,3.5,40,0.00,BKN,,0.00,WeatherDisplay:10.37,2013-04-15 20:10:00,
2013-04-15 16:15:00,72.0,45.7,30.00,SSE,158,2.5,3.5,39,0.00,BKN,,0.00,WeatherDisplay:10.37,2013-04-15 20:15:00,
2013-04-15 16:20:00,71.4,45.1,29.99,WSW,248,1.2,1.7,39,0.00,BKN,,0.00,WeatherDisplay:10.37,2013-04-15 20:20:00,
2013-04-15 16:25:00,71.1,44.9,29.99,SW,225,3.0,3.5,39,0.00,BKN,,0.00,WeatherDisplay:10.37,2013-04-15 20:25:00,
2013-04-15 16:30:00,70.7,45.2,29.99,SE,135,1.2,2.3,40,0.00,BKN,,0.00,WeatherDisplay:10.37,2013-04-15 20:30:00,
2013-04-15 16:35:00,71.4,47.1,29.99,SE,135,1.0,2.3,42,0.00,BKN,,0.00,WeatherDisplay:10.37,2013-04-15 20:35:00,
2013-04-15 16:40:00,72.3,46.6,29.99,ESE,112,3.1,3.5,40,0.00,BKN,,0.00,WeatherDisplay:10.37,2013-04-15 20:40:00,
2013-04-15 16:45:00,71.8,45.5,29.97,SE,135,4.3,5.8,39,0.00,BKN,,0.00,WeatherDisplay:10.37,2013-04-15 20:45:00,
2013-04-15 16:50:00,71.8,45.5,29.97,SSE,158,3.5,4.6,39,0.00,BKN,,0.00,WeatherDisplay:10.37,2013-04-15 20:50:00,
2013-04-15 16:55:00,72.1,45.8,29.97,ESE,112,4.5,4.7,39,0.00,BKN,,0.00,WeatherDisplay:10.37,2013-04-15 20:55:00,
2013-04-15 17:00:00,72.3,45.3,29.97,ESE,112,4.2,5.8,38,0.00,BKN,,0.00,WeatherDisplay:10.37,2013-04-15 21:00:00,
2013-04-15 17:05:00,72.5,46.1,29.96,NNE,22,2.1,2.3,39,0.00,BKN,,0.00,WeatherDisplay:10.37,2013-04-15 21:05:00,
2013-04-15 17:10:00,72.3,46.6,29.96,ESE,112,0.4,2.3,40,0.00,BKN,,0.00,WeatherDisplay:10.37,2013-04-15 21:10:00,
2013-04-15 17:15:00,72.5,46.1,29.96,SE,135,2.9,3.7,39,0.00,BKN,,0.00,WeatherDisplay:10.37,2013-04-15 21:15:00,
2013-04-15 17:20:00,73.2,46.1,29.96,ESE,112,2.3,2.7,38,0.00,BKN,,0.00,WeatherDisplay:10.37,2013-04-15 21:20:00,
2013-04-15 17:25:00,73.0,46.6,29.96,ESE,112,2.0,2.3,39,0.00,BKN,,0.00,WeatherDisplay:10.37,2013-04-15 21:25:00,
2013-04-15 17:30:00,73.0,47.2,29.96,SE,135,0.0,0.0,40,0.00,BKN,,0.00,WeatherDisplay:10.37,2013-04-15 21:30:00,
2013-04-15 17:35:00,72.9,46.5,29.96,SSE,158,1.3,1.7,39,0.00,BKN,,0.00,WeatherDisplay:10.37,2013-04-15 21:35:00,
2013-04-15 17:40:00,72.1,45.8,29.96,South,180,1.0,1.1,39,0.00,BKN,,0.00,WeatherDisplay:10.37,2013-04-15 21:40:00,
2013-04-15 17:45:00,72.3,46.6,29.96,SE,135,0.0,0.0,40,0.00,BKN,,0.00,WeatherDisplay:10.37,2013-04-15 21:45:00,
2013-04-15 17:50:00,72.9,45.8,29.96,NW,315,2.4,3.5,38,0.00,BKN,,0.00,WeatherDisplay:10.37,2013-04-15 21:50:00,
2013-04-15 17:55:00,72.9,45.8,29.96,South,180,3.3,4.6,38,0.00,BKN,,0.00,WeatherDisplay:10.37,2013-04-15 21:55:00,
2013-04-15 18:00:00,71.4,45.8,29.96,SSE,158,6.9,8.1,40,0.00,BKN,,0.00,WeatherDisplay:10.37,2013-04-15 22:00:00,
2013-04-15 18:05:00,71.1,45.5,29.97,WSW,248,8.6,9.4,40,0.00,BKN,,0.00,WeatherDisplay:10.37,2013-04-15 22:05:00,
2013-04-15 18:10:00,70.5,45.7,29.97,West,270,7.7,9.2,41,0.00,BKN,,0.00,WeatherDisplay:10.37,2013-04-15 22:10:00,
2013-04-15 18:15:00,70.3,45.5,29.97,ENE,68,8.3,11.5,41,0.00,BKN,,0.00,WeatherDisplay:10.37,2013-04-15 22:15:00,
2013-04-15 18:20:00,69.6,45.5,29.98,SSW,202,7.5,9.2,42,0.00,BKN,,0.00,WeatherDisplay:10.37,2013-04-15 22:20:00,
2013-04-15 18:25:00,70.0,45.2,29.98,West,270,8.2,10.4,41,0.00,BKN,,0.00,WeatherDisplay:10.37,2013-04-15 22:25:00,
2013-04-15 18:30:00,70.7,45.8,29.98,East,90,8.6,11.5,41,0.00,BKN,,0.00,WeatherDisplay:10.37,2013-04-15 22:30:00,
2013-04-15 18:35:00,70.3,45.5,29.98,SSE,158,7.9,10.4,41,0.00,BKN,,0.00,WeatherDisplay:10.37,2013-04-15 22:35:00,
2013-04-15 18:40:00,70.2,46.0,29.99,NNE,22,9.0,11.5,42,0.00,BKN,,0.00,WeatherDisplay:10.37,2013-04-15 22:40:00,
2013-04-15 18:45:00,70.5,46.3,29.99,WNW,292,7.6,10.4,42,0.00,BKN,,0.00,WeatherDisplay:10.37,2013-04-15 22:45:00,
2013-04-15 18:50:00,69.8,46.3,29.99,East,90,6.0,7.8,43,0.00,BKN,,0.00,WeatherDisplay:10.37,2013-04-15 22:50:00,
2013-04-15 18:55:00,69.6,46.1,29.99,SSW,202,8.1,11.5,43,0.00,BKN,,0.00,WeatherDisplay:10.37,2013-04-15 22:55:00,
2013-04-15 19:00:00,68.7,46.5,29.99,WSW,248,9.3,10.4,45,0.00,BKN,,0.00,WeatherDisplay:10.37,2013-04-15 23:00:00,
2013-04-15 19:05:00,68.0,46.4,30.00,ESE,112,8.4,12.7,46,0.00,BKN,,0.00,WeatherDisplay:10.37,2013-04-15 23:05:00,
2013-04-15 19:10:00,67.6,46.1,30.00,NNW,338,10.0,12.7,46,0.00,BKN,,0.00,WeatherDisplay:10.37,2013-04-15 23:10:00,
2013-04-15 19:15:00,67.1,46.2,30.00,SW,225,5.7,9.2,47,0.00,BKN,,0.00,WeatherDisplay:10.37,2013-04-15 23:15:00,
2013-04-15 19:20:00,66.6,46.3,29.99,SSW,202,7.6,8.3,48,0.00,BKN,,0.00,WeatherDisplay:10.37,2013-04-15 23:20:00,
2013-04-15 19:25:00,66.4,46.1,29.99,SW,225,5.5,9.2,48,0.00,BKN,,0.00,WeatherDisplay:10.37,2013-04-15 23:25:00,
2013-04-15 19:30:00,66.0,46.3,30.00,West,270,8.3,8.3,49,0.00,BKN,,0.00,WeatherDisplay:10.37,2013-04-15 23:30:00,
2013-04-15 19:35:00,65.7,46.0,30.00,West,270,6.3,6.9,49,0.00,BKN,,0.00,WeatherDisplay:10.37,2013-04-15 23:35:00,
2013-04-15 19:40:00,65.5,46.4,30.00,ESE,112,3.5,5.8,50,0.00,BKN,,0.00,WeatherDisplay:10.37,2013-04-15 23:40:00,
2013-04-15 19:45:00,64.9,46.3,30.00,West,270,3.5,5.8,51,0.00,BKN,,0.00,WeatherDisplay:10.37,2013-04-15 23:45:00,
2013-04-15 19:50:00,64.6,46.1,30.00,West,270,6.6,10.4,51,0.00,BKN,,0.00,WeatherDisplay:10.37,2013-04-15 23:50:00,
2013-04-15 19:55:00,64.6,46.1,30.00,WSW,248,4.7,5.8,51,0.00,BKN,,0.00,WeatherDisplay:10.37,2013-04-15 23:55:00,
2013-04-15 20:00:00,64.4,45.9,30.00,West,270,5.5,6.9,51,0.00,BKN,,0.00,WeatherDisplay:10.37,2013-04-16 00:00:00,
2013-04-15 20:05:00,64.4,45.9,30.00,West,270,4.2,4.6,51,0.00,BKN,,0.00,WeatherDisplay:10.37,2013-04-16 00:05:00,
2013-04-15 20:10:00,63.9,45.9,30.00,West,270,5.5,8.1,52,0.00,BKN,,0.00,WeatherDisplay:10.37,2013-04-16 00:10:00,
2013-04-15 20:15:00,63.9,45.9,30.00,WSW,248,3.6,4.6,52,0.00,BKN,,0.00,WeatherDisplay:10.37,2013-04-16 00:15:00,
2013-04-15 20:20:00,63.5,46.1,30.00,West,270,3.6,5.8,53,0.00,BKN,,0.00,WeatherDisplay:10.37,2013-04-16 00:20:00,
2013-04-15 20:25:00,63.5,46.1,30.00,SW,225,3.8,6.3,53,0.00,BKN,,0.00,WeatherDisplay:10.37,2013-04-16 00:25:00,
2013-04-15 20:30:00,63.5,46.1,30.01,SE,135,5.2,8.1,53,0.00,BKN,,0.00,WeatherDisplay:10.37,2013-04-16 00:30:00,
2013-04-15 20:35:00,63.1,46.2,30.01,West,270,5.1,5.8,54,0.00,BKN,,0.00,WeatherDisplay:10.37,2013-04-16 00:35:00,
2013-04-15 20:40:00,63.0,46.1,30.01,ESE,112,3.9,6.3,54,0.00,BKN,,0.00,WeatherDisplay:10.37,2013-04-16 00:40:00,
2013-04-15 20:45:00,63.1,46.2,30.01,NNW,338,5.7,9.2,54,0.00,BKN,,0.00,WeatherDisplay:10.37,2013-04-16 00:45:00,
2013-04-15 20:50:00,63.0,46.6,30.01,NNW,338,5.1,9.2,55,0.00,BKN,,0.00,WeatherDisplay:10.37,2013-04-16 00:50:00,
2013-04-15 20:55:00,62.8,46.9,30.01,West,270,6.2,6.8,56,0.00,BKN,,0.00,WeatherDisplay:10.37,2013-04-16 00:55:00,
2013-04-15 21:00:00,62.6,47.1,30.01,NNE,22,5.8,6.9,57,0.00,BKN,,0.00,WeatherDisplay:10.37,2013-04-16 01:00:00,
2013-04-15 21:05:00,62.6,47.1,30.02,NW,315,3.9,6.9,57,0.00,BKN,,0.00,WeatherDisplay:10.37,2013-04-16 01:05:00,
2013-04-15 21:10:00,62.2,47.2,30.02,WSW,248,4.7,8.1,58,0.00,BKN,,0.00,WeatherDisplay:10.37,2013-04-16 01:10:00,
2013-04-15 21:15:00,62.2,47.2,30.02,SSW,202,5.1,5.8,58,0.00,BKN,,0.00,WeatherDisplay:10.37,2013-04-16 01:15:00,
2013-04-15 21:20:00,61.9,47.4,30.02,WSW,248,7.5,9.2,59,0.00,BKN,,0.00,WeatherDisplay:10.37,2013-04-16 01:20:00,
2013-04-15 21:25:00,62.1,47.6,30.02,East,90,5.4,8.1,59,0.00,BKN,,0.00,WeatherDisplay:10.37,2013-04-16 01:25:00,
2013-04-15 21:30:00,62.1,47.6,30.02,SSW,202,6.8,9.2,59,0.00,BKN,,0.00,WeatherDisplay:10.37,2013-04-16 01:30:00,
2013-04-15 21:35:00,61.7,47.2,30.02,WSW,248,3.0,8.8,59,0.00,BKN,,0.00,WeatherDisplay:10.37,2013-04-16 01:35:00,
2013-04-15 21:40:00,61.3,47.3,30.02,SSW,202,2.9,4.6,60,0.00,BKN,,0.00,WeatherDisplay:10.37,2013-04-16 01:40:00,
2013-04-15 21:45:00,61.2,47.2,30.02,SW,225,4.5,5.8,60,0.00,BKN,,0.00,WeatherDisplay:10.37,2013-04-16 01:45:00,
2013-04-15 21:50:00,61.0,47.0,30.02,WSW,248,3.5,8.1,60,0.00,BKN,,0.00,WeatherDisplay:10.37,2013-04-16 01:50:00,
2013-04-15 21:55:00,61.2,47.2,30.02,SW,225,7.3,12.7,60,0.00,BKN,,0.00,WeatherDisplay:10.37,2013-04-16 01:55:00,
2013-04-15 22:00:00,61.3,47.3,30.02,North,360,7.9,10.4,60,0.00,BKN,,0.00,WeatherDisplay:10.37,2013-04-16 02:00:00,
2013-04-15 22:05:00,61.0,47.0,30.03,East,90,4.1,8.1,60,0.00,FEW,,0.00,WeatherDisplay:10.37,2013-04-16 02:05:00,
2013-04-15 22:10:00,60.8,46.8,30.03,SSE,158,6.2,8.1,60,0.00,FEW,,0.00,WeatherDisplay:10.37,2013-04-16 02:10:00,
2013-04-15 22:15:00,60.6,46.6,30.03,South,180,7.8,8.1,60,0.00,FEW,,0.00,WeatherDisplay:10.37,2013-04-16 02:15:00,
2013-04-15 22:20:00,60.8,46.8,30.02,West,270,4.4,8.1,60,0.00,FEW,,0.00,WeatherDisplay:10.37,2013-04-16 02:20:00,
2013-04-15 22:25:00,60.6,46.6,30.02,West,270,6.5,8.1,60,0.00,FEW,,0.00,WeatherDisplay:10.37,2013-04-16 02:25:00,
2013-04-15 22:30:00,60.4,46.4,30.03,East,90,6.6,6.9,60,0.00,FEW,,0.00,WeatherDisplay:10.37,2013-04-16 02:30:00,
2013-04-15 22:35:00,61.0,47.0,30.03,West,270,7.2,10.4,60,0.00,FEW,,0.00,WeatherDisplay:10.37,2013-04-16 02:35:00,
2013-04-15 22:40:00,61.2,47.2,30.03,SSW,202,6.4,6.9,60,0.00,FEW,,0.00,WeatherDisplay:10.37,2013-04-16 02:40:00,
2013-04-15 22:45:00,61.3,46.8,30.02,SSE,158,7.6,9.9,59,0.00,FEW,,0.00,WeatherDisplay:10.37,2013-04-16 02:45:00,
2013-04-15 22:50:00,61.3,46.8,30.02,WNW,292,10.1,11.5,59,0.00,FEW,,0.00,WeatherDisplay:10.37,2013-04-16 02:50:00,
2013-04-15 22:55:00,61.3,46.8,30.02,WSW,248,8.5,12.7,59,0.00,FEW,,0.00,WeatherDisplay:10.37,2013-04-16 02:55:00,
2013-04-15 23:00:00,61.3,46.4,30.02,South,180,7.6,9.2,58,0.00,FEW,,0.00,WeatherDisplay:10.37,2013-04-16 03:00:00,
2013-04-15 23:05:00,61.7,46.8,30.02,SE,135,6.2,10.4,58,0.00,BKN,,0.00,WeatherDisplay:10.37,2013-04-16 03:05:00,
2013-04-15 23:10:00,61.5,46.6,30.02,SSW,202,8.2,10.4,58,0.00,BKN,,0.00,WeatherDisplay:10.37,2013-04-16 03:10:00,
2013-04-15 23:15:00,61.5,46.6,30.02,SSE,158,10.5,11.5,58,0.00,BKN,,0.00,WeatherDisplay:10.37,2013-04-16 03:15:00,
2013-04-15 23:20:00,61.7,46.3,30.02,West,270,10.0,12.7,57,0.00,BKN,,0.00,WeatherDisplay:10.37,2013-04-16 03:20:00,
2013-04-15 23:25:00,61.7,46.3,30.02,West,270,7.3,9.2,57,0.00,BKN,,0.00,WeatherDisplay:10.37,2013-04-16 03:25:00,
2013-04-15 23:30:00,61.7,46.3,30.02,SE,135,5.0,8.1,57,0.00,BKN,,0.00,WeatherDisplay:10.37,2013-04-16 03:30:00,
2013-04-15 23:35:00,61.7,46.3,30.02,SSE,158,9.0,13.0,57,0.00,BKN,,0.00,WeatherDisplay:10.37,2013-04-16 03:35:00,
2013-04-15 23:40:00,61.7,46.3,30.02,SE,135,5.2,5.8,57,0.00,BKN,,0.00,WeatherDisplay:10.37,2013-04-16 03:40:00,
2013-04-15 23:45:00,61.7,46.3,30.02,SW,225,5.9,5.9,57,0.00,BKN,,0.00,WeatherDisplay:10.37,2013-04-16 03:45:00,
2013-04-15 23:50:00,61.9,46.5,30.02,NNW,338,5.4,5.8,57,0.00,BKN,,0.00,WeatherDisplay:10.37,2013-04-16 03:50:00,
2013-04-15 23:55:00,61.9,46.5,30.01,West,270,9.8,10.4,57,0.00,BKN,,0.00,WeatherDisplay:10.37,2013-04-16 03:55:00,